Time;durP1;ratioP1;P1;durP2;ratioP2;P2;SDS_P1;SDS_P2;PMS_P1;PMS_P2;Temp;Humidity;BMP_temperature;BMP_pressure;BME280_temperature;BME280_humidity;BME280_pressure;Samples;Min_cycle;Max_cycle;Signal;HPM_P1;HPM_P2
2024/01/04 00:02:10;;;;;;;2.70;1.33;;;11.70;99.90;;;;;;6200844;23;20372;-61
2024/01/04 00:04:57;;;;;;;4.45;1.73;;;11.70;99.90;;;;;;6201839;23;20183;-62
2024/01/04 00:07:43;;;;;;;3.83;1.40;;;11.70;99.90;;;;;;6201234;23;20458;-61
2024/01/04 00:10:29;;;;;;;2.70;1.20;;;11.70;99.90;;;;;;6199482;23;20062;-62
2024/01/04 00:13:15;;;;;;;4.22;1.50;;;11.70;99.90;;;;;;6200713;23;20087;-61
2024/01/04 00:16:01;;;;;;;1.63;1.00;;;11.70;99.90;;;;;;6201683;23;20009;-61
2024/01/04 00:18:47;;;;;;;3.72;1.90;;;11.70;99.90;;;;;;6200336;23;20445;-61
2024/01/04 00:21:33;;;;;;;2.60;1.20;;;11.70;99.90;;;;;;6204515;23;20099;-61
2024/01/04 00:24:19;;;;;;;2.00;1.50;;;11.70;99.90;;;;;;6199758;23;20014;-61
2024/01/04 00:27:05;;;;;;;2.42;1.60;;;11.70;99.90;;;;;;6199869;23;20013;-62
2024/01/04 00:29:51;;;;;;;4.05;1.70;;;11.70;99.90;;;;;;6200184;23;20090;-61
2024/01/04 00:32:37;;;;;;;5.68;1.50;;;11.70;99.90;;;;;;6202118;23;20078;-61
2024/01/04 00:35:23;;;;;;;3.72;1.45;;;11.70;99.90;;;;;;6199564;23;20106;-61
2024/01/04 00:38:09;;;;;;;3.58;1.20;;;11.70;99.90;;;;;;6201805;23;20341;-62
2024/01/04 00:40:55;;;;;;;4.25;1.80;;;11.70;99.90;;;;;;6201037;23;20711;-61
2024/01/04 00:43:42;;;;;;;3.22;1.70;;;11.70;99.90;;;;;;6202038;23;20070;-62
2024/01/04 00:46:28;;;;;;;6.15;1.92;;;11.70;99.90;;;;;;6202796;23;20022;-62
2024/01/04 00:49:14;;;;;;;3.50;1.33;;;11.70;99.90;;;;;;6202393;23;20009;-62
2024/01/04 00:52:00;;;;;;;1.92;1.15;;;11.70;99.90;;;;;;6199893;23;20504;-62
2024/01/04 00:54:46;;;;;;;6.97;1.48;;;11.70;99.90;;;;;;6201667;23;20008;-61
2024/01/04 00:57:32;;;;;;;3.88;1.50;;;11.70;99.90;;;;;;6200612;23;20171;-61
2024/01/04 01:00:18;;;;;;;5.13;1.50;;;11.60;99.90;;;;;;6211577;23;20021;-61
2024/01/04 01:03:04;;;;;;;2.42;1.63;;;11.60;99.90;;;;;;6218091;23;20082;-62
2024/01/04 01:05:50;;;;;;;2.35;1.17;;;11.60;99.90;;;;;;6203149;23;20040;-62
2024/01/04 01:08:36;;;;;;;1.85;1.00;;;11.60;99.90;;;;;;6200232;23;20032;-62
2024/01/04 01:11:22;;;;;;;4.32;1.70;;;11.60;99.90;;;;;;6201780;23;20020;-62
2024/01/04 01:14:08;;;;;;;4.57;1.45;;;11.60;99.90;;;;;;6199489;23;20012;-61
2024/01/04 01:16:55;;;;;;;3.85;1.30;;;11.60;99.90;;;;;;6200576;23;20449;-61
2024/01/04 01:19:41;;;;;;;2.58;1.50;;;11.70;99.90;;;;;;6201749;23;20351;-61
2024/01/04 01:22:26;;;;;;;2.20;0.95;;;11.60;99.90;;;;;;6200063;23;20012;-61
2024/01/04 01:25:12;;;;;;;2.22;1.55;;;11.60;99.90;;;;;;6201016;23;20040;-61
2024/01/04 01:27:58;;;;;;;1.35;0.98;;;11.70;99.90;;;;;;6201533;23;20023;-60
2024/01/04 01:30:44;;;;;;;3.50;1.40;;;11.60;99.90;;;;;;6203346;23;20024;-61
2024/01/04 01:33:30;;;;;;;2.20;1.20;;;11.70;99.90;;;;;;6199534;23;20349;-62
2024/01/04 01:36:16;;;;;;;2.35;1.33;;;11.60;99.90;;;;;;6201082;23;20016;-62
2024/01/04 01:39:02;;;;;;;3.60;0.93;;;11.60;99.90;;;;;;6200359;23;20085;-61
2024/01/04 01:41:48;;;;;;;1.73;0.85;;;11.60;99.90;;;;;;6199879;23;20187;-62
2024/01/04 01:44:34;;;;;;;1.50;1.10;;;11.60;99.90;;;;;;6200811;23;20146;-61
2024/01/04 01:47:22;;;;;;;4.13;1.08;;;11.60;99.90;;;;;;6179814;23;20008;-61
2024/01/04 01:50:08;;;;;;;1.73;1.10;;;11.60;99.90;;;;;;6204116;23;20021;-61
2024/01/04 01:52:54;;;;;;;1.23;0.93;;;11.60;99.90;;;;;;6202759;23;20322;-61
2024/01/04 01:55:41;;;;;;;2.30;1.05;;;11.60;99.90;;;;;;6201229;23;20345;-61
2024/01/04 01:58:27;;;;;;;1.67;0.80;;;11.70;99.90;;;;;;6205191;23;20039;-61
2024/01/04 02:01:13;;;;;;;1.50;0.80;;;11.60;99.90;;;;;;6203390;23;20028;-61
2024/01/04 02:03:59;;;;;;;1.27;0.90;;;11.60;99.90;;;;;;6202192;23;20019;-61
2024/01/04 02:06:45;;;;;;;3.95;1.00;;;11.60;99.90;;;;;;6202304;23;20051;-60
2024/01/04 02:09:31;;;;;;;1.45;0.80;;;11.60;99.90;;;;;;6202003;23;20012;-61
2024/01/04 02:12:17;;;;;;;1.77;1.10;;;11.60;99.90;;;;;;6203451;23;20008;-61
2024/01/04 02:15:03;;;;;;;2.80;0.82;;;11.60;99.90;;;;;;6202186;23;20536;-61
2024/01/04 02:17:49;;;;;;;1.20;1.05;;;11.60;99.90;;;;;;6202908;23;20020;-61
2024/01/04 02:20:35;;;;;;;1.50;0.80;;;11.60;99.90;;;;;;6201924;23;20094;-60
2024/01/04 02:23:21;;;;;;;1.08;0.80;;;11.60;99.90;;;;;;6201994;23;20031;-61
2024/01/04 02:26:07;;;;;;;0.68;0.60;;;11.60;99.90;;;;;;6205940;23;20024;-61
2024/01/04 02:28:53;;;;;;;1.77;1.00;;;11.60;99.90;;;;;;6201508;23;20030;-61
2024/01/04 02:31:39;;;;;;;2.10;1.15;;;11.50;99.90;;;;;;6201802;23;20108;-61
2024/01/04 02:34:25;;;;;;;1.33;0.95;;;11.50;99.90;;;;;;6202263;23;20103;-61
2024/01/04 02:37:11;;;;;;;2.03;0.98;;;11.50;99.90;;;;;;6201700;23;20357;-62
2024/01/04 02:39:57;;;;;;;4.82;1.50;;;11.50;99.90;;;;;;6200285;23;20016;-61
2024/01/04 02:42:43;;;;;;;1.15;1.02;;;11.50;99.90;;;;;;6202912;23;20013;-62
2024/01/04 02:45:29;;;;;;;2.00;1.00;;;11.50;99.90;;;;;;6201402;23;20016;-62
2024/01/04 02:48:15;;;;;;;1.25;0.80;;;11.50;99.90;;;;;;6181377;23;20016;-62
2024/01/04 02:51:01;;;;;;;3.00;0.98;;;11.40;99.90;;;;;;6201851;23;20051;-62
2024/01/04 02:53:47;;;;;;;1.38;0.80;;;11.50;99.90;;;;;;6201401;23;20017;-61
2024/01/04 02:56:33;;;;;;;1.35;0.80;;;11.40;99.90;;;;;;6200972;23;20345;-62
2024/01/04 02:59:19;;;;;;;0.82;0.55;;;11.50;99.90;;;;;;6181564;23;20083;-62
2024/01/04 03:02:05;;;;;;;2.20;1.15;;;11.50;99.90;;;;;;6201369;23;20024;-61
2024/01/04 03:04:51;;;;;;;5.03;1.38;;;11.40;99.90;;;;;;6201724;23;20441;-62
2024/01/04 03:07:37;;;;;;;2.75;1.08;;;11.50;99.90;;;;;;6201089;23;20019;-61
2024/01/04 03:10:23;;;;;;;1.25;0.77;;;11.40;99.90;;;;;;6202794;23;20025;-61
2024/01/04 03:13:09;;;;;;;1.70;1.10;;;11.40;99.90;;;;;;6203181;23;20486;-62
2024/01/04 03:15:55;;;;;;;2.08;0.98;;;11.30;99.90;;;;;;6202845;23;20333;-62
2024/01/04 03:18:41;;;;;;;1.40;0.90;;;11.30;99.90;;;;;;6200765;23;20327;-62
2024/01/04 03:21:27;;;;;;;1.55;0.73;;;11.30;99.90;;;;;;6203149;23;20047;-62
2024/01/04 03:24:13;;;;;;;0.80;0.63;;;11.30;99.90;;;;;;6201194;23;20615;-62
2024/01/04 03:26:59;;;;;;;1.70;1.00;;;11.20;99.90;;;;;;6201510;23;20021;-62
2024/01/04 03:29:45;;;;;;;1.17;0.77;;;11.20;99.90;;;;;;6200937;23;20060;-62
2024/01/04 03:32:31;;;;;;;2.25;1.13;;;11.20;99.90;;;;;;6205156;23;20008;-61
2024/01/04 03:35:17;;;;;;;2.05;1.17;;;11.20;99.90;;;;;;6201193;23;20012;-62
2024/01/04 03:38:03;;;;;;;1.75;0.80;;;11.20;99.90;;;;;;6202510;23;20016;-62
2024/01/04 03:40:49;;;;;;;2.83;0.82;;;11.10;99.90;;;;;;6200354;23;20357;-63
2024/01/04 03:43:35;;;;;;;2.28;1.33;;;11.10;99.90;;;;;;6200433;23;20340;-62
2024/01/04 03:46:21;;;;;;;1.55;0.90;;;11.10;99.90;;;;;;6201149;23;20012;-62
2024/01/04 03:49:07;;;;;;;1.30;0.80;;;11.10;99.90;;;;;;6179473;23;20012;-62
2024/01/04 03:51:52;;;;;;;1.75;0.98;;;11.10;99.90;;;;;;6200645;23;20047;-62
2024/01/04 03:54:38;;;;;;;1.80;0.70;;;11.10;99.90;;;;;;6179039;23;20353;-62
2024/01/04 03:57:24;;;;;;;1.40;0.90;;;11.10;99.90;;;;;;6199650;23;20009;-62
2024/01/04 04:00:11;;;;;;;1.95;1.00;;;11.10;99.90;;;;;;6180754;23;20035;-62
2024/01/04 04:02:58;;;;;;;1.48;0.75;;;11.10;99.90;;;;;;6200932;23;20009;-61
2024/01/04 04:05:44;;;;;;;3.75;1.20;;;11.10;99.90;;;;;;6201688;23;20031;-62
2024/01/04 04:08:30;;;;;;;1.25;0.90;;;11.00;99.90;;;;;;6201240;23;20008;-62
2024/01/04 04:11:17;;;;;;;1.00;0.70;;;11.00;99.90;;;;;;6202079;23;20122;-62
2024/01/04 04:14:03;;;;;;;1.92;0.82;;;11.00;99.90;;;;;;6200299;23;20012;-61
2024/01/04 04:16:49;;;;;;;2.22;1.45;;;11.00;99.90;;;;;;6206063;23;20345;-63
2024/01/04 04:19:35;;;;;;;1.05;1.00;;;10.90;99.90;;;;;;6217612;23;20060;-61
2024/01/04 04:22:21;;;;;;;1.75;1.08;;;10.90;99.90;;;;;;6205496;23;20077;-62
2024/01/04 04:25:07;;;;;;;2.20;0.90;;;10.90;99.90;;;;;;6201758;23;20012;-62
2024/01/04 04:27:54;;;;;;;1.45;0.88;;;10.90;99.90;;;;;;6201119;23;20092;-62
2024/01/04 04:30:39;;;;;;;1.63;0.68;;;10.90;99.90;;;;;;6201032;23;20485;-62
2024/01/04 04:33:25;;;;;;;3.83;1.05;;;10.90;99.90;;;;;;6200419;23;20344;-62
2024/01/04 04:36:12;;;;;;;0.77;0.60;;;10.90;99.90;;;;;;6202331;23;20012;-62
2024/01/04 04:39:02;;;;;;;1.75;0.93;;;10.90;99.90;;;;;;6179781;23;20009;-62
2024/01/04 04:41:48;;;;;;;0.75;0.73;;;10.80;99.90;;;;;;6199674;23;20055;-61
2024/01/04 04:44:34;;;;;;;1.27;1.00;;;10.90;99.90;;;;;;6201792;23;20446;-62
2024/01/04 04:47:20;;;;;;;2.65;1.02;;;10.80;99.90;;;;;;6199631;23;20395;-62
2024/01/04 04:50:06;;;;;;;1.02;0.70;;;10.80;99.90;;;;;;6200278;23;20020;-61
2024/01/04 04:52:52;;;;;;;0.88;0.70;;;10.80;99.90;;;;;;6200194;23;20021;-61
2024/01/04 04:55:38;;;;;;;2.92;0.93;;;10.80;99.90;;;;;;6200835;23;20028;-62
2024/01/04 04:58:24;;;;;;;1.40;0.90;;;10.80;99.90;;;;;;6200179;23;20023;-61
2024/01/04 05:01:10;;;;;;;1.88;1.00;;;10.80;99.90;;;;;;6199826;23;20028;-61
2024/01/04 05:03:56;;;;;;;2.42;0.98;;;10.80;99.90;;;;;;6199533;23;20106;-61
2024/01/04 05:06:42;;;;;;;1.52;1.00;;;10.80;99.90;;;;;;6200040;23;20137;-61
2024/01/04 05:09:28;;;;;;;1.52;0.82;;;10.80;99.90;;;;;;6201515;23;20408;-61
2024/01/04 05:12:14;;;;;;;1.35;0.98;;;10.80;99.90;;;;;;6201513;23;20066;-61
2024/01/04 05:15:00;;;;;;;1.13;0.93;;;10.80;99.90;;;;;;6199617;23;20013;-62
2024/01/04 05:17:45;;;;;;;2.53;1.10;;;10.80;99.90;;;;;;6199960;23;20141;-61
2024/01/04 05:20:31;;;;;;;1.92;0.95;;;10.80;99.90;;;;;;6200017;23;20035;-61
2024/01/04 05:23:17;;;;;;;2.90;1.48;;;10.70;99.90;;;;;;6201235;23;20035;-61
2024/01/04 05:26:03;;;;;;;2.00;1.20;;;10.70;99.90;;;;;;6200392;23;20430;-62
2024/01/04 05:28:49;;;;;;;1.85;1.08;;;10.80;99.90;;;;;;6199376;23;20064;-61
2024/01/04 05:31:35;;;;;;;1.90;1.40;;;10.70;99.90;;;;;;6202898;23;20416;-62
2024/01/04 05:34:21;;;;;;;2.95;1.30;;;10.70;99.90;;;;;;6199801;23;20015;-61
2024/01/04 05:37:07;;;;;;;1.63;1.10;;;10.70;99.90;;;;;;6199679;23;20032;-61
2024/01/04 05:39:53;;;;;;;1.65;0.90;;;10.70;99.90;;;;;;6199749;23;20040;-62
2024/01/04 05:42:39;;;;;;;2.33;1.25;;;10.70;99.90;;;;;;6200459;23;20090;-61
2024/01/04 05:45:25;;;;;;;2.17;1.00;;;10.70;99.90;;;;;;6199243;23;20012;-62
2024/01/04 05:48:11;;;;;;;2.83;1.80;;;10.70;99.90;;;;;;6178664;23;20095;-62
2024/01/04 05:50:57;;;;;;;3.10;1.40;;;10.70;99.90;;;;;;6201162;23;20485;-61
2024/01/04 05:53:43;;;;;;;2.15;1.40;;;10.70;99.90;;;;;;6201494;23;20491;-61
2024/01/04 05:56:29;;;;;;;1.90;1.30;;;10.70;99.90;;;;;;6199960;23;20017;-61
2024/01/04 05:59:15;;;;;;;1.50;1.10;;;10.70;99.90;;;;;;6201181;23;20019;-61
2024/01/04 06:02:01;;;;;;;2.28;1.20;;;10.70;99.90;;;;;;6171461;23;20204;-62
2024/01/04 06:04:48;;;;;;;2.33;1.50;;;10.60;99.90;;;;;;6173378;23;20017;-61
2024/01/04 06:07:34;;;;;;;1.80;1.30;;;10.60;99.90;;;;;;6172488;23;20425;-61
2024/01/04 06:10:20;;;;;;;1.98;1.23;;;10.70;99.90;;;;;;6172894;23;20387;-62
2024/01/04 06:13:07;;;;;;;2.35;1.42;;;10.60;99.90;;;;;;6171459;23;20340;-61
2024/01/04 06:15:53;;;;;;;2.88;1.65;;;10.60;99.90;;;;;;6171099;23;20021;-61
2024/01/04 06:18:39;;;;;;;2.30;1.10;;;10.60;99.90;;;;;;6172773;23;20591;-62
2024/01/04 06:21:25;;;;;;;1.85;1.33;;;10.60;99.90;;;;;;6148364;23;20020;-62
2024/01/04 06:24:11;;;;;;;1.50;1.05;;;10.60;99.90;;;;;;6172416;23;20047;-63
2024/01/04 06:26:57;;;;;;;3.00;1.48;;;10.60;99.90;;;;;;6170699;23;20063;-61
2024/01/04 06:29:44;;;;;;;1.88;1.05;;;10.60;99.90;;;;;;6173066;23;20017;-62
2024/01/04 06:32:30;;;;;;;2.30;1.33;;;10.50;99.90;;;;;;6171114;23;20023;-62
2024/01/04 06:35:16;;;;;;;2.05;1.52;;;10.50;99.90;;;;;;6171919;23;20357;-61
2024/01/04 06:38:08;;;;;;;2.58;1.27;;;10.50;99.90;;;;;;6174706;23;20020;-61
2024/01/04 06:40:57;;;;;;;2.03;1.00;;;10.50;99.90;;;;;;6171071;23;20016;-62
2024/01/04 06:43:43;;;;;;;0.95;0.90;;;10.50;99.90;;;;;;6175513;23;20020;-62
2024/01/04 06:46:29;;;;;;;1.92;1.00;;;10.40;99.90;;;;;;6175823;23;20013;-61
2024/01/04 06:49:15;;;;;;;0.82;0.80;;;10.30;99.90;;;;;;6174977;23;20096;-61
2024/01/04 06:52:01;;;;;;;1.92;1.30;;;10.30;99.90;;;;;;6174502;23;20024;-61
2024/01/04 06:54:47;;;;;;;2.33;1.42;;;10.30;99.90;;;;;;6174756;23;20013;-62
2024/01/04 06:57:33;;;;;;;1.08;0.88;;;10.20;99.90;;;;;;6174132;23;20013;-61
2024/01/04 07:00:19;;;;;;;3.65;1.73;;;10.20;99.90;;;;;;6184785;23;20035;-62
2024/01/04 07:03:06;;;;;;;1.13;1.00;;;10.20;99.90;;;;;;6201196;23;20447;-61
2024/01/04 07:05:52;;;;;;;1.77;1.10;;;10.20;99.90;;;;;;6182317;23;20056;-61
2024/01/04 07:08:38;;;;;;;1.10;0.80;;;10.20;99.90;;;;;;6200626;23;20005;-61
2024/01/04 07:11:24;;;;;;;2.97;1.00;;;10.20;99.90;;;;;;6202282;23;20021;-61
2024/01/04 07:14:09;;;;;;;1.95;1.15;;;10.10;99.90;;;;;;6201322;23;20043;-61
2024/01/04 07:16:55;;;;;;;1.05;0.90;;;10.20;99.90;;;;;;6200910;23;20012;-60
2024/01/04 07:19:45;;;;;;;1.00;0.75;;;10.10;99.90;;;;;;6202487;23;20438;-62
2024/01/04 07:22:31;;;;;;;1.65;0.90;;;10.00;99.90;;;;;;6205563;23;20017;-69
2024/01/04 07:25:17;;;;;;;1.33;0.80;;;9.90;99.90;;;;;;6181665;23;20016;-69
2024/01/04 07:28:04;;;;;;;1.40;1.00;;;9.80;99.90;;;;;;6201814;23;20525;-69
2024/01/04 07:30:50;;;;;;;0.50;0.47;;;9.70;99.90;;;;;;6204445;23;20024;-68
2024/01/04 07:33:36;;;;;;;0.75;0.60;;;9.70;99.90;;;;;;6226989;23;19996;-69
2024/01/04 07:36:22;;;;;;;0.60;0.57;;;9.60;99.90;;;;;;6218774;23;20397;-69
2024/01/04 07:39:08;;;;;;;0.85;0.57;;;9.50;99.90;;;;;;6204230;23;20040;-69
2024/01/04 07:41:54;;;;;;;0.47;0.47;;;9.40;99.90;;;;;;6202357;23;20013;-70
2024/01/04 07:44:40;;;;;;;1.05;0.70;;;9.40;99.90;;;;;;6200237;23;20023;-68
2024/01/04 07:47:26;;;;;;;1.00;0.75;;;9.30;99.90;;;;;;6202495;23;20017;-69
2024/01/04 07:50:12;;;;;;;0.95;0.80;;;9.20;99.90;;;;;;6200258;23;20021;-69
2024/01/04 07:52:57;;;;;;;2.33;1.30;;;9.20;99.90;;;;;;6201795;23;20332;-69
2024/01/04 07:55:44;;;;;;;0.93;0.90;;;9.10;99.90;;;;;;6200914;23;20077;-69
2024/01/04 07:58:30;;;;;;;2.45;0.90;;;9.00;99.90;;;;;;6203445;23;20107;-69
